sensor_id;sensor_type;location;lat;lon;timestamp;temperature;humidity
56322;DHT22;42227;6.376;-10.782;2024-03-07T00:01:11;29.70;99.90
56322;DHT22;42227;6.376;-10.782;2024-03-07T00:03:39;29.70;99.90
56322;DHT22;42227;6.376;-10.782;2024-03-07T00:06:08;29.70;99.90
56322;DHT22;42227;6.376;-10.782;2024-03-07T00:08:36;29.80;99.90
56322;DHT22;42227;6.376;-10.782;2024-03-07T00:11:04;29.80;99.90
56322;DHT22;42227;6.376;-10.782;2024-03-07T00:13:33;29.80;99.90
56322;DHT22;42227;6.376;-10.782;2024-03-07T00:16:02;29.80;99.90
56322;DHT22;42227;6.376;-10.782;2024-03-07T00:18:30;29.80;99.90
56322;DHT22;42227;6.376;-10.782;2024-03-07T00:20:59;29.80;99.90
56322;DHT22;42227;6.376;-10.782;2024-03-07T00:23:28;29.70;99.90
56322;DHT22;42227;6.376;-10.782;2024-03-07T00:25:56;29.90;99.90
56322;DHT22;42227;6.376;-10.782;2024-03-07T00:28:24;29.80;99.90
56322;DHT22;42227;6.376;-10.782;2024-03-07T00:30:53;29.60;99.90
56322;DHT22;42227;6.376;-10.782;2024-03-07T00:33:21;29.40;1.00
56322;DHT22;42227;6.376;-10.782;2024-03-07T00:35:50;29.30;1.00
56322;DHT22;42227;6.376;-10.782;2024-03-07T00:38:18;29.30;1.00
56322;DHT22;42227;6.376;-10.782;2024-03-07T00:40:46;29.30;1.00
56322;DHT22;42227;6.376;-10.782;2024-03-07T00:43:15;29.50;1.00
56322;DHT22;42227;6.376;-10.782;2024-03-07T00:45:43;29.50;1.00
56322;DHT22;42227;6.376;-10.782;2024-03-07T00:48:12;29.60;1.00
56322;DHT22;42227;6.376;-10.782;2024-03-07T00:50:40;29.60;1.00
56322;DHT22;42227;6.376;-10.782;2024-03-07T00:53:11;29.60;1.00
56322;DHT22;42227;6.376;-10.782;2024-03-07T00:55:39;29.60;1.00
56322;DHT22;42227;6.376;-10.782;2024-03-07T00:58:08;29.60;1.00
56322;DHT22;42227;6.376;-10.782;2024-03-07T01:00:36;29.60;1.00
56322;DHT22;42227;6.376;-10.782;2024-03-07T01:03:04;29.70;1.00
56322;DHT22;42227;6.376;-10.782;2024-03-07T01:05:33;29.80;99.90
56322;DHT22;42227;6.376;-10.782;2024-03-07T01:08:01;29.80;99.90
56322;DHT22;42227;6.376;-10.782;2024-03-07T01:10:29;29.70;99.90
56322;DHT22;42227;6.376;-10.782;2024-03-07T01:12:58;29.50;1.00
56322;DHT22;42227;6.376;-10.782;2024-03-07T01:15:27;29.40;1.00
56322;DHT22;42227;6.376;-10.782;2024-03-07T01:17:55;29.30;1.00
56322;DHT22;42227;6.376;-10.782;2024-03-07T01:20:24;29.30;1.00
56322;DHT22;42227;6.376;-10.782;2024-03-07T01:22:52;29.40;1.00
56322;DHT22;42227;6.376;-10.782;2024-03-07T01:25:20;29.50;1.00
56322;DHT22;42227;6.376;-10.782;2024-03-07T01:27:49;29.60;1.00
56322;DHT22;42227;6.376;-10.782;2024-03-07T01:30:17;29.60;1.00
56322;DHT22;42227;6.376;-10.782;2024-03-07T01:32:46;29.60;1.00
56322;DHT22;42227;6.376;-10.782;2024-03-07T01:35:14;29.70;1.00
56322;DHT22;42227;6.376;-10.782;2024-03-07T01:37:42;29.60;1.00
56322;DHT22;42227;6.376;-10.782;2024-03-07T01:40:11;29.60;1.00
56322;DHT22;42227;6.376;-10.782;2024-03-07T01:42:40;29.50;1.00
56322;DHT22;42227;6.376;-10.782;2024-03-07T01:45:09;29.60;1.00
56322;DHT22;42227;6.376;-10.782;2024-03-07T01:47:37;29.60;1.00
56322;DHT22;42227;6.376;-10.782;2024-03-07T01:50:07;29.40;1.00
56322;DHT22;42227;6.376;-10.782;2024-03-07T01:52:40;29.30;1.00
56322;DHT22;42227;6.376;-10.782;2024-03-07T01:55:09;29.30;1.00
56322;DHT22;42227;6.376;-10.782;2024-03-07T01:57:41;29.30;1.00
56322;DHT22;42227;6.376;-10.782;2024-03-07T02:00:10;29.50;1.00
56322;DHT22;42227;6.376;-10.782;2024-03-07T02:02:38;29.60;1.00
56322;DHT22;42227;6.376;-10.782;2024-03-07T02:05:07;29.50;1.00
56322;DHT22;42227;6.376;-10.782;2024-03-07T02:07:36;29.50;1.00
56322;DHT22;42227;6.376;-10.782;2024-03-07T02:10:05;29.50;1.00
56322;DHT22;42227;6.376;-10.782;2024-03-07T02:12:34;29.60;1.00
56322;DHT22;42227;6.376;-10.782;2024-03-07T02:15:03;29.60;1.00
56322;DHT22;42227;6.376;-10.782;2024-03-07T02:17:31;29.60;1.00
56322;DHT22;42227;6.376;-10.782;2024-03-07T02:20:00;29.70;1.00
56322;DHT22;42227;6.376;-10.782;2024-03-07T02:22:28;29.70;99.90
56322;DHT22;42227;6.376;-10.782;2024-03-07T02:24:56;29.60;99.90
56322;DHT22;42227;6.376;-10.782;2024-03-07T02:27:25;29.50;1.00
56322;DHT22;42227;6.376;-10.782;2024-03-07T02:29:53;29.40;1.00
56322;DHT22;42227;6.376;-10.782;2024-03-07T02:32:22;29.40;1.00
56322;DHT22;42227;6.376;-10.782;2024-03-07T02:34:50;29.50;1.00
56322;DHT22;42227;6.376;-10.782;2024-03-07T02:37:19;29.60;99.90
56322;DHT22;42227;6.376;-10.782;2024-03-07T02:39:47;29.70;99.90
56322;DHT22;42227;6.376;-10.782;2024-03-07T02:42:15;29.80;99.90
56322;DHT22;42227;6.376;-10.782;2024-03-07T02:44:44;29.70;99.90
56322;DHT22;42227;6.376;-10.782;2024-03-07T02:47:12;29.80;99.90
56322;DHT22;42227;6.376;-10.782;2024-03-07T02:49:40;29.80;99.90
56322;DHT22;42227;6.376;-10.782;2024-03-07T02:52:09;29.90;99.90
56322;DHT22;42227;6.376;-10.782;2024-03-07T02:54:38;29.80;99.90
56322;DHT22;42227;6.376;-10.782;2024-03-07T02:57:06;29.60;99.90
56322;DHT22;42227;6.376;-10.782;2024-03-07T02:59:34;29.50;99.90
56322;DHT22;42227;6.376;-10.782;2024-03-07T03:02:03;29.40;99.90
56322;DHT22;42227;6.376;-10.782;2024-03-07T03:04:31;29.40;99.90
56322;DHT22;42227;6.376;-10.782;2024-03-07T03:07:00;29.50;99.90
56322;DHT22;42227;6.376;-10.782;2024-03-07T03:09:28;29.60;99.90
56322;DHT22;42227;6.376;-10.782;2024-03-07T03:11:57;29.70;99.90
56322;DHT22;42227;6.376;-10.782;2024-03-07T03:14:25;29.70;99.90
56322;DHT22;42227;6.376;-10.782;2024-03-07T03:16:54;29.80;99.90
56322;DHT22;42227;6.376;-10.782;2024-03-07T03:19:22;29.80;99.90
56322;DHT22;42227;6.376;-10.782;2024-03-07T03:21:50;29.80;99.90
56322;DHT22;42227;6.376;-10.782;2024-03-07T03:24:19;29.60;99.90
56322;DHT22;42227;6.376;-10.782;2024-03-07T03:26:47;29.50;99.90
56322;DHT22;42227;6.376;-10.782;2024-03-07T03:29:16;29.40;99.90
56322;DHT22;42227;6.376;-10.782;2024-03-07T03:31:44;29.30;99.90
56322;DHT22;42227;6.376;-10.782;2024-03-07T03:34:12;29.40;99.90
56322;DHT22;42227;6.376;-10.782;2024-03-07T03:36:41;29.60;99.90
56322;DHT22;42227;6.376;-10.782;2024-03-07T03:39:09;29.70;99.90
56322;DHT22;42227;6.376;-10.782;2024-03-07T03:41:38;29.80;99.90
56322;DHT22;42227;6.376;-10.782;2024-03-07T03:44:07;29.70;99.90
56322;DHT22;42227;6.376;-10.782;2024-03-07T03:46:36;29.80;99.90
56322;DHT22;42227;6.376;-10.782;2024-03-07T03:49:05;29.70;99.90
56322;DHT22;42227;6.376;-10.782;2024-03-07T03:51:33;29.70;99.90
56322;DHT22;42227;6.376;-10.782;2024-03-07T03:54:01;29.70;99.90
56322;DHT22;42227;6.376;-10.782;2024-03-07T03:56:30;29.70;99.90
56322;DHT22;42227;6.376;-10.782;2024-03-07T03:58:58;29.50;99.90
56322;DHT22;42227;6.376;-10.782;2024-03-07T04:01:27;29.40;99.90
56322;DHT22;42227;6.376;-10.782;2024-03-07T04:03:55;29.30;99.90
56322;DHT22;42227;6.376;-10.782;2024-03-07T04:06:23;29.20;99.90
56322;DHT22;42227;6.376;-10.782;2024-03-07T04:08:52;29.30;99.90
56322;DHT22;42227;6.376;-10.782;2024-03-07T04:11:20;29.40;99.90
56322;DHT22;42227;6.376;-10.782;2024-03-07T04:13:49;29.50;99.90
56322;DHT22;42227;6.376;-10.782;2024-03-07T04:16:17;29.60;99.90
56322;DHT22;42227;6.376;-10.782;2024-03-07T04:18:45;29.60;99.90
56322;DHT22;42227;6.376;-10.782;2024-03-07T04:21:14;29.50;99.90
56322;DHT22;42227;6.376;-10.782;2024-03-07T04:23:42;29.50;99.90
56322;DHT22;42227;6.376;-10.782;2024-03-07T04:26:11;29.30;99.90
56322;DHT22;42227;6.376;-10.782;2024-03-07T04:28:39;29.30;99.90
56322;DHT22;42227;6.376;-10.782;2024-03-07T04:31:07;29.20;99.90
56322;DHT22;42227;6.376;-10.782;2024-03-07T04:33:36;29.20;99.90
56322;DHT22;42227;6.376;-10.782;2024-03-07T04:36:04;29.20;99.90
56322;DHT22;42227;6.376;-10.782;2024-03-07T04:38:33;29.30;99.90
56322;DHT22;42227;6.376;-10.782;2024-03-07T04:41:01;29.40;99.90
56322;DHT22;42227;6.376;-10.782;2024-03-07T04:43:30;29.40;99.90
56322;DHT22;42227;6.376;-10.782;2024-03-07T04:45:58;29.40;99.90
56322;DHT22;42227;6.376;-10.782;2024-03-07T04:48:26;29.50;99.90
56322;DHT22;42227;6.376;-10.782;2024-03-07T04:50:55;29.50;99.90
56322;DHT22;42227;6.376;-10.782;2024-03-07T04:53:24;29.60;99.90
56322;DHT22;42227;6.376;-10.782;2024-03-07T04:55:52;29.60;99.90
56322;DHT22;42227;6.376;-10.782;2024-03-07T04:58:21;29.40;99.90
56322;DHT22;42227;6.376;-10.782;2024-03-07T05:00:49;29.10;99.90
56322;DHT22;42227;6.376;-10.782;2024-03-07T05:03:18;29.20;99.90
56322;DHT22;42227;6.376;-10.782;2024-03-07T05:05:46;29.10;99.90
56322;DHT22;42227;6.376;-10.782;2024-03-07T05:08:17;29.10;99.90
56322;DHT22;42227;6.376;-10.782;2024-03-07T05:10:46;29.10;99.90
56322;DHT22;42227;6.376;-10.782;2024-03-07T05:13:14;29.10;99.90
56322;DHT22;42227;6.376;-10.782;2024-03-07T05:15:42;29.20;99.90
56322;DHT22;42227;6.376;-10.782;2024-03-07T05:18:11;29.20;99.90
56322;DHT22;42227;6.376;-10.782;2024-03-07T05:20:40;29.20;99.90
56322;DHT22;42227;6.376;-10.782;2024-03-07T05:23:08;29.20;99.90
56322;DHT22;42227;6.376;-10.782;2024-03-07T05:25:36;29.20;99.90
56322;DHT22;42227;6.376;-10.782;2024-03-07T05:28:05;29.00;99.90
56322;DHT22;42227;6.376;-10.782;2024-03-07T05:30:33;29.00;99.90
56322;DHT22;42227;6.376;-10.782;2024-03-07T05:33:02;28.90;99.90
56322;DHT22;42227;6.376;-10.782;2024-03-07T05:35:30;28.90;99.90
56322;DHT22;42227;6.376;-10.782;2024-03-07T05:37:59;29.00;99.90
56322;DHT22;42227;6.376;-10.782;2024-03-07T05:40:27;29.00;99.90
56322;DHT22;42227;6.376;-10.782;2024-03-07T05:42:55;29.00;99.90
56322;DHT22;42227;6.376;-10.782;2024-03-07T05:45:24;28.90;99.90
56322;DHT22;42227;6.376;-10.782;2024-03-07T05:47:52;29.00;99.90
56322;DHT22;42227;6.376;-10.782;2024-03-07T05:50:21;29.10;99.90
56322;DHT22;42227;6.376;-10.782;2024-03-07T05:52:49;29.10;99.90
56322;DHT22;42227;6.376;-10.782;2024-03-07T05:55:18;29.00;99.90
56322;DHT22;42227;6.376;-10.782;2024-03-07T05:57:46;28.80;99.90
56322;DHT22;42227;6.376;-10.782;2024-03-07T06:00:15;28.80;99.90
56322;DHT22;42227;6.376;-10.782;2024-03-07T06:02:43;28.70;99.90
56322;DHT22;42227;6.376;-10.782;2024-03-07T06:05:12;28.70;99.90
56322;DHT22;42227;6.376;-10.782;2024-03-07T06:07:40;28.80;99.90
56322;DHT22;42227;6.376;-10.782;2024-03-07T06:10:09;28.90;99.90
56322;DHT22;42227;6.376;-10.782;2024-03-07T06:12:37;28.90;99.90
56322;DHT22;42227;6.376;-10.782;2024-03-07T06:15:10;28.90;99.90
56322;DHT22;42227;6.376;-10.782;2024-03-07T06:17:38;28.90;99.90
56322;DHT22;42227;6.376;-10.782;2024-03-07T06:20:07;28.80;99.90
56322;DHT22;42227;6.376;-10.782;2024-03-07T06:22:35;28.80;99.90
56322;DHT22;42227;6.376;-10.782;2024-03-07T06:25:04;28.70;99.90
56322;DHT22;42227;6.376;-10.782;2024-03-07T06:27:33;28.60;99.90
56322;DHT22;42227;6.376;-10.782;2024-03-07T06:30:02;28.60;1.00
56322;DHT22;42227;6.376;-10.782;2024-03-07T06:32:30;28.70;1.00
56322;DHT22;42227;6.376;-10.782;2024-03-07T06:34:59;28.40;1.00
56322;DHT22;42227;6.376;-10.782;2024-03-07T06:37:27;28.50;1.00
56322;DHT22;42227;6.376;-10.782;2024-03-07T06:39:56;28.70;1.00
56322;DHT22;42227;6.376;-10.782;2024-03-07T06:42:24;28.90;99.90
56322;DHT22;42227;6.376;-10.782;2024-03-07T06:44:52;29.00;99.90
56322;DHT22;42227;6.376;-10.782;2024-03-07T06:47:21;28.80;99.90
56322;DHT22;42227;6.376;-10.782;2024-03-07T06:49:49;28.80;99.90
56322;DHT22;42227;6.376;-10.782;2024-03-07T06:52:18;28.70;99.90
56322;DHT22;42227;6.376;-10.782;2024-03-07T06:54:46;28.70;99.90
56322;DHT22;42227;6.376;-10.782;2024-03-07T06:57:17;28.60;1.00
56322;DHT22;42227;6.376;-10.782;2024-03-07T06:59:46;28.70;1.00
56322;DHT22;42227;6.376;-10.782;2024-03-07T07:02:14;28.80;99.90
56322;DHT22;42227;6.376;-10.782;2024-03-07T07:04:43;28.90;99.90
56322;DHT22;42227;6.376;-10.782;2024-03-07T07:07:11;29.00;99.90
56322;DHT22;42227;6.376;-10.782;2024-03-07T07:09:40;29.00;99.90
56322;DHT22;42227;6.376;-10.782;2024-03-07T07:12:09;29.00;99.90
56322;DHT22;42227;6.376;-10.782;2024-03-07T07:14:37;28.90;99.90
56322;DHT22;42227;6.376;-10.782;2024-03-07T07:17:06;28.80;99.90
56322;DHT22;42227;6.376;-10.782;2024-03-07T07:19:37;28.80;99.90
56322;DHT22;42227;6.376;-10.782;2024-03-07T07:22:06;28.80;99.90
56322;DHT22;42227;6.376;-10.782;2024-03-07T07:24:34;28.90;99.90
56322;DHT22;42227;6.376;-10.782;2024-03-07T07:27:03;29.00;99.90
56322;DHT22;42227;6.376;-10.782;2024-03-07T07:29:31;29.20;99.90
56322;DHT22;42227;6.376;-10.782;2024-03-07T07:31:59;29.30;99.90
56322;DHT22;42227;6.376;-10.782;2024-03-07T07:34:28;29.40;99.90
56322;DHT22;42227;6.376;-10.782;2024-03-07T07:36:56;29.40;99.90
56322;DHT22;42227;6.376;-10.782;2024-03-07T07:39:25;29.60;99.90
56322;DHT22;42227;6.376;-10.782;2024-03-07T07:41:53;29.50;99.90
56322;DHT22;42227;6.376;-10.782;2024-03-07T07:44:22;29.50;99.90
56322;DHT22;42227;6.376;-10.782;2024-03-07T07:46:50;29.70;99.90
56322;DHT22;42227;6.376;-10.782;2024-03-07T07:49:18;29.70;99.90
56322;DHT22;42227;6.376;-10.782;2024-03-07T07:51:47;29.80;99.90
56322;DHT22;42227;6.376;-10.782;2024-03-07T07:54:19;30.10;99.90
56322;DHT22;42227;6.376;-10.782;2024-03-07T07:56:48;30.40;99.90
56322;DHT22;42227;6.376;-10.782;2024-03-07T07:59:16;30.50;99.90
56322;DHT22;42227;6.376;-10.782;2024-03-07T08:01:45;30.70;99.90
56322;DHT22;42227;6.376;-10.782;2024-03-07T08:04:13;30.80;99.90
56322;DHT22;42227;6.376;-10.782;2024-03-07T08:06:41;30.80;99.90
56322;DHT22;42227;6.376;-10.782;2024-03-07T08:09:10;30.80;99.90
56322;DHT22;42227;6.376;-10.782;2024-03-07T08:11:38;30.90;99.90
56322;DHT22;42227;6.376;-10.782;2024-03-07T08:14:07;30.90;99.90
56322;DHT22;42227;6.376;-10.782;2024-03-07T08:16:35;31.10;99.90
56322;DHT22;42227;6.376;-10.782;2024-03-07T08:19:07;31.30;96.90
56322;DHT22;42227;6.376;-10.782;2024-03-07T08:21:35;31.40;90.80
56322;DHT22;42227;6.376;-10.782;2024-03-07T08:24:04;31.70;72.20
56322;DHT22;42227;6.376;-10.782;2024-03-07T08:26:32;31.90;39.10
56322;DHT22;42227;6.376;-10.782;2024-03-07T08:29:00;32.00;32.80
56322;DHT22;42227;6.376;-10.782;2024-03-07T08:31:29;32.10;23.20
56322;DHT22;42227;6.376;-10.782;2024-03-07T08:33:57;31.90;32.10
56322;DHT22;42227;6.376;-10.782;2024-03-07T08:36:25;32.10;20.20
56322;DHT22;42227;6.376;-10.782;2024-03-07T08:38:54;32.20;9.10
56322;DHT22;42227;6.376;-10.782;2024-03-07T08:41:22;32.40;2.70
56322;DHT22;42227;6.376;-10.782;2024-03-07T08:43:51;32.70;1.00
56322;DHT22;42227;6.376;-10.782;2024-03-07T08:46:19;33.00;1.00
56322;DHT22;42227;6.376;-10.782;2024-03-07T08:48:48;33.30;1.00
56322;DHT22;42227;6.376;-10.782;2024-03-07T08:51:16;33.40;1.00
56322;DHT22;42227;6.376;-10.782;2024-03-07T08:53:45;33.60;1.00
56322;DHT22;42227;6.376;-10.782;2024-03-07T08:56:13;33.70;1.00
56322;DHT22;42227;6.376;-10.782;2024-03-07T08:58:42;33.80;1.00
56322;DHT22;42227;6.376;-10.782;2024-03-07T09:01:10;34.00;1.00
56322;DHT22;42227;6.376;-10.782;2024-03-07T09:03:39;34.10;1.00
56322;DHT22;42227;6.376;-10.782;2024-03-07T09:06:07;34.10;1.00
56322;DHT22;42227;6.376;-10.782;2024-03-07T09:08:36;33.80;1.00
56322;DHT22;42227;6.376;-10.782;2024-03-07T09:11:04;33.60;1.00
56322;DHT22;42227;6.376;-10.782;2024-03-07T09:13:32;33.50;1.00
56322;DHT22;42227;6.376;-10.782;2024-03-07T09:16:01;33.60;1.00
56322;DHT22;42227;6.376;-10.782;2024-03-07T09:18:29;33.70;1.00
56322;DHT22;42227;6.376;-10.782;2024-03-07T09:20:57;33.60;1.00
56322;DHT22;42227;6.376;-10.782;2024-03-07T09:23:26;33.80;1.00
56322;DHT22;42227;6.376;-10.782;2024-03-07T09:25:54;33.80;1.00
56322;DHT22;42227;6.376;-10.782;2024-03-07T09:28:23;33.90;1.00
56322;DHT22;42227;6.376;-10.782;2024-03-07T09:30:51;34.10;1.00
56322;DHT22;42227;6.376;-10.782;2024-03-07T09:33:20;34.10;1.00
56322;DHT22;42227;6.376;-10.782;2024-03-07T09:35:52;34.30;1.00
56322;DHT22;42227;6.376;-10.782;2024-03-07T09:38:20;34.10;1.00
56322;DHT22;42227;6.376;-10.782;2024-03-07T09:40:49;34.10;1.00
56322;DHT22;42227;6.376;-10.782;2024-03-07T09:43:17;34.30;1.00
56322;DHT22;42227;6.376;-10.782;2024-03-07T09:45:46;34.00;1.00
56322;DHT22;42227;6.376;-10.782;2024-03-07T09:48:16;33.50;1.00
56322;DHT22;42227;6.376;-10.782;2024-03-07T09:50:45;33.10;1.00
56322;DHT22;42227;6.376;-10.782;2024-03-07T09:53:16;32.80;1.00
56322;DHT22;42227;6.376;-10.782;2024-03-07T09:55:47;32.60;1.00
56322;DHT22;42227;6.376;-10.782;2024-03-07T09:58:18;32.60;1.00
56322;DHT22;42227;6.376;-10.782;2024-03-07T10:00:48;32.80;1.00
56322;DHT22;42227;6.376;-10.782;2024-03-07T10:03:18;32.90;1.00
56322;DHT22;42227;6.376;-10.782;2024-03-07T10:05:48;33.10;1.00
56322;DHT22;42227;6.376;-10.782;2024-03-07T10:08:17;33.00;1.00
56322;DHT22;42227;6.376;-10.782;2024-03-07T10:10:46;33.10;1.00
56322;DHT22;42227;6.376;-10.782;2024-03-07T10:13:15;33.10;1.00
56322;DHT22;42227;6.376;-10.782;2024-03-07T10:15:44;33.20;1.00
56322;DHT22;42227;6.376;-10.782;2024-03-07T10:18:12;33.10;1.00
56322;DHT22;42227;6.376;-10.782;2024-03-07T10:20:43;33.00;1.00
56322;DHT22;42227;6.376;-10.782;2024-03-07T10:23:11;32.90;1.00
56322;DHT22;42227;6.376;-10.782;2024-03-07T10:25:40;33.10;1.00
56322;DHT22;42227;6.376;-10.782;2024-03-07T10:28:09;33.10;1.00
56322;DHT22;42227;6.376;-10.782;2024-03-07T10:30:44;33.10;1.00
56322;DHT22;42227;6.376;-10.782;2024-03-07T10:33:13;33.10;1.00
56322;DHT22;42227;6.376;-10.782;2024-03-07T10:35:41;32.80;1.00
56322;DHT22;42227;6.376;-10.782;2024-03-07T10:38:10;32.80;1.00
56322;DHT22;42227;6.376;-10.782;2024-03-07T10:40:41;33.00;1.00
56322;DHT22;42227;6.376;-10.782;2024-03-07T10:43:11;33.10;1.00
56322;DHT22;42227;6.376;-10.782;2024-03-07T10:45:45;32.80;1.00
56322;DHT22;42227;6.376;-10.782;2024-03-07T10:48:17;33.10;1.00
56322;DHT22;42227;6.376;-10.782;2024-03-07T10:54:05;33.10;1.00
56322;DHT22;42227;6.376;-10.782;2024-03-07T10:57:31;33.00;1.00
56322;DHT22;42227;6.376;-10.782;2024-03-07T10:59:44;33.30;1.00
56322;DHT22;42227;6.376;-10.782;2024-03-07T11:04:51;33.30;1.00
56322;DHT22;42227;6.376;-10.782;2024-03-07T11:07:22;33.40;1.00
56322;DHT22;42227;6.376;-10.782;2024-03-07T11:09:51;33.30;1.00
56322;DHT22;42227;6.376;-10.782;2024-03-07T11:12:23;33.30;1.00
56322;DHT22;42227;6.376;-10.782;2024-03-07T11:14:54;33.30;1.00
56322;DHT22;42227;6.376;-10.782;2024-03-07T11:17:23;33.50;1.00
56322;DHT22;42227;6.376;-10.782;2024-03-07T11:19:51;33.50;1.00
56322;DHT22;42227;6.376;-10.782;2024-03-07T11:22:33;33.30;1.00
56322;DHT22;42227;6.376;-10.782;2024-03-07T11:25:05;33.40;1.00
56322;DHT22;42227;6.376;-10.782;2024-03-07T11:27:40;33.60;1.00
56322;DHT22;42227;6.376;-10.782;2024-03-07T11:30:18;33.60;1.00
56322;DHT22;42227;6.376;-10.782;2024-03-07T11:32:47;33.40;1.00
56322;DHT22;42227;6.376;-10.782;2024-03-07T11:35:15;33.40;1.00
56322;DHT22;42227;6.376;-10.782;2024-03-07T11:37:44;33.30;1.00
56322;DHT22;42227;6.376;-10.782;2024-03-07T11:40:13;33.20;1.00
56322;DHT22;42227;6.376;-10.782;2024-03-07T11:42:45;33.50;1.00
56322;DHT22;42227;6.376;-10.782;2024-03-07T11:45:14;33.60;1.00
56322;DHT22;42227;6.376;-10.782;2024-03-07T11:47:43;33.60;1.00
56322;DHT22;42227;6.376;-10.782;2024-03-07T11:50:12;33.50;1.00
56322;DHT22;42227;6.376;-10.782;2024-03-07T11:52:40;33.40;1.00
56322;DHT22;42227;6.376;-10.782;2024-03-07T11:55:10;33.30;1.00
56322;DHT22;42227;6.376;-10.782;2024-03-07T11:57:39;33.20;1.00
56322;DHT22;42227;6.376;-10.782;2024-03-07T12:00:09;33.30;1.00
56322;DHT22;42227;6.376;-10.782;2024-03-07T12:02:41;33.30;1.00
56322;DHT22;42227;6.376;-10.782;2024-03-07T12:05:10;33.10;1.00
56322;DHT22;42227;6.376;-10.782;2024-03-07T12:07:38;33.20;1.00
56322;DHT22;42227;6.376;-10.782;2024-03-07T12:10:07;33.20;1.00
56322;DHT22;42227;6.376;-10.782;2024-03-07T12:12:35;33.20;1.00
56322;DHT22;42227;6.376;-10.782;2024-03-07T12:15:06;33.00;1.00
56322;DHT22;42227;6.376;-10.782;2024-03-07T12:17:34;33.10;1.00
56322;DHT22;42227;6.376;-10.782;2024-03-07T12:20:04;33.20;1.00
56322;DHT22;42227;6.376;-10.782;2024-03-07T12:22:33;33.10;1.00
56322;DHT22;42227;6.376;-10.782;2024-03-07T12:25:04;33.30;1.00
56322;DHT22;42227;6.376;-10.782;2024-03-07T12:27:32;33.40;1.00
56322;DHT22;42227;6.376;-10.782;2024-03-07T12:30:01;33.30;1.00
56322;DHT22;42227;6.376;-10.782;2024-03-07T12:32:29;33.00;1.00
56322;DHT22;42227;6.376;-10.782;2024-03-07T12:34:58;33.00;1.00
56322;DHT22;42227;6.376;-10.782;2024-03-07T12:37:26;33.00;1.00
56322;DHT22;42227;6.376;-10.782;2024-03-07T12:39:55;33.10;1.00
56322;DHT22;42227;6.376;-10.782;2024-03-07T12:42:23;33.00;1.00
56322;DHT22;42227;6.376;-10.782;2024-03-07T12:44:52;32.80;1.00
56322;DHT22;42227;6.376;-10.782;2024-03-07T12:47:23;33.00;1.00
56322;DHT22;42227;6.376;-10.782;2024-03-07T12:49:52;33.30;1.00
56322;DHT22;42227;6.376;-10.782;2024-03-07T12:52:20;33.30;1.00
56322;DHT22;42227;6.376;-10.782;2024-03-07T12:54:49;33.30;1.00
56322;DHT22;42227;6.376;-10.782;2024-03-07T12:57:17;33.30;1.00
56322;DHT22;42227;6.376;-10.782;2024-03-07T12:59:46;33.30;1.00
56322;DHT22;42227;6.376;-10.782;2024-03-07T13:02:14;33.20;1.00
56322;DHT22;42227;6.376;-10.782;2024-03-07T13:04:43;33.30;1.00
56322;DHT22;42227;6.376;-10.782;2024-03-07T13:07:12;33.10;1.00
56322;DHT22;42227;6.376;-10.782;2024-03-07T13:09:40;33.10;1.00
56322;DHT22;42227;6.376;-10.782;2024-03-07T13:12:08;33.00;1.00
56322;DHT22;42227;6.376;-10.782;2024-03-07T13:14:38;33.00;1.00
56322;DHT22;42227;6.376;-10.782;2024-03-07T13:17:06;33.10;1.00
56322;DHT22;42227;6.376;-10.782;2024-03-07T13:19:34;33.00;1.00
56322;DHT22;42227;6.376;-10.782;2024-03-07T13:22:03;33.20;1.00
56322;DHT22;42227;6.376;-10.782;2024-03-07T13:24:31;33.20;1.00
56322;DHT22;42227;6.376;-10.782;2024-03-07T13:26:59;33.10;1.00
56322;DHT22;42227;6.376;-10.782;2024-03-07T13:29:28;33.00;1.00
56322;DHT22;42227;6.376;-10.782;2024-03-07T13:31:56;33.00;1.00
56322;DHT22;42227;6.376;-10.782;2024-03-07T13:34:25;33.10;1.00
56322;DHT22;42227;6.376;-10.782;2024-03-07T13:36:53;33.00;1.00
56322;DHT22;42227;6.376;-10.782;2024-03-07T13:39:22;33.00;1.00
56322;DHT22;42227;6.376;-10.782;2024-03-07T13:41:50;32.90;1.00
56322;DHT22;42227;6.376;-10.782;2024-03-07T13:44:25;32.70;1.00
56322;DHT22;42227;6.376;-10.782;2024-03-07T13:46:56;32.70;1.00
56322;DHT22;42227;6.376;-10.782;2024-03-07T13:49:25;33.00;1.00
56322;DHT22;42227;6.376;-10.782;2024-03-07T13:51:55;33.10;1.00
56322;DHT22;42227;6.376;-10.782;2024-03-07T13:54:23;33.10;1.00
56322;DHT22;42227;6.376;-10.782;2024-03-07T14:00:13;33.20;1.00
56322;DHT22;42227;6.376;-10.782;2024-03-07T14:06:02;33.40;1.00
56322;DHT22;42227;6.376;-10.782;2024-03-07T14:17:52;33.10;1.00
56322;DHT22;42227;6.376;-10.782;2024-03-07T14:20:59;33.10;1.00
56322;DHT22;42227;6.376;-10.782;2024-03-07T14:32:16;32.70;1.00
56322;DHT22;42227;6.376;-10.782;2024-03-07T14:35:08;32.80;1.00
56322;DHT22;42227;6.376;-10.782;2024-03-07T14:37:55;32.70;1.00
56322;DHT22;42227;6.376;-10.782;2024-03-07T14:40:29;32.90;1.00
56322;DHT22;42227;6.376;-10.782;2024-03-07T14:43:01;32.80;1.00
56322;DHT22;42227;6.376;-10.782;2024-03-07T14:45:40;32.70;1.00
56322;DHT22;42227;6.376;-10.782;2024-03-07T14:48:11;32.90;1.00
56322;DHT22;42227;6.376;-10.782;2024-03-07T14:50:42;33.00;1.00
56322;DHT22;42227;6.376;-10.782;2024-03-07T14:53:12;33.00;1.00
56322;DHT22;42227;6.376;-10.782;2024-03-07T14:55:41;33.00;1.00
56322;DHT22;42227;6.376;-10.782;2024-03-07T14:58:09;33.00;1.00
56322;DHT22;42227;6.376;-10.782;2024-03-07T15:00:39;32.90;1.00
56322;DHT22;42227;6.376;-10.782;2024-03-07T15:03:13;32.90;1.00
56322;DHT22;42227;6.376;-10.782;2024-03-07T15:05:45;32.90;1.00
56322;DHT22;42227;6.376;-10.782;2024-03-07T15:08:14;33.00;1.00
56322;DHT22;42227;6.376;-10.782;2024-03-07T15:10:48;33.10;1.00
56322;DHT22;42227;6.376;-10.782;2024-03-07T15:13:18;33.10;1.00
56322;DHT22;42227;6.376;-10.782;2024-03-07T15:15:46;32.90;1.00
56322;DHT22;42227;6.376;-10.782;2024-03-07T15:18:15;32.80;1.00
56322;DHT22;42227;6.376;-10.782;2024-03-07T15:20:44;32.70;1.00
56322;DHT22;42227;6.376;-10.782;2024-03-07T15:23:13;32.50;1.00
56322;DHT22;42227;6.376;-10.782;2024-03-07T15:25:41;32.50;1.00
56322;DHT22;42227;6.376;-10.782;2024-03-07T15:28:10;32.80;1.00
56322;DHT22;42227;6.376;-10.782;2024-03-07T15:30:38;32.80;1.00
56322;DHT22;42227;6.376;-10.782;2024-03-07T15:33:06;32.80;1.00
56322;DHT22;42227;6.376;-10.782;2024-03-07T15:35:35;32.90;1.00
56322;DHT22;42227;6.376;-10.782;2024-03-07T15:38:03;33.10;1.00
56322;DHT22;42227;6.376;-10.782;2024-03-07T15:40:32;33.20;1.00
56322;DHT22;42227;6.376;-10.782;2024-03-07T15:43:01;33.10;1.00
56322;DHT22;42227;6.376;-10.782;2024-03-07T15:45:29;33.10;1.00
56322;DHT22;42227;6.376;-10.782;2024-03-07T15:47:59;33.00;1.00
56322;DHT22;42227;6.376;-10.782;2024-03-07T15:50:28;32.90;1.00
56322;DHT22;42227;6.376;-10.782;2024-03-07T15:52:57;32.80;1.00
56322;DHT22;42227;6.376;-10.782;2024-03-07T15:55:26;32.70;1.00
56322;DHT22;42227;6.376;-10.782;2024-03-07T15:57:56;32.80;1.00
56322;DHT22;42227;6.376;-10.782;2024-03-07T16:00:28;32.80;1.00
56322;DHT22;42227;6.376;-10.782;2024-03-07T16:03:03;32.70;1.00
56322;DHT22;42227;6.376;-10.782;2024-03-07T16:05:32;32.60;1.00
56322;DHT22;42227;6.376;-10.782;2024-03-07T16:08:04;32.50;1.00